Time;durP1;ratioP1;P1;durP2;ratioP2;P2;SDS_P1;SDS_P2;PMS_P1;PMS_P2;Temp;Humidity;BMP_temperature;BMP_pressure;BME280_temperature;BME280_humidity;BME280_pressure;Samples;Min_cycle;Max_cycle;Signal;HPM_P1;HPM_P2
2023/02/18 00:01:31;;;;;;;2.63;1.42;;;15.90;57.60;;;;;;5017398;28;20065;-80
2023/02/18 00:03:58;;;;;;;3.13;1.25;;;15.90;57.50;;;;;;5016868;28;20108;-80
2023/02/18 00:06:29;;;;;;;2.85;1.40;;;15.90;57.50;;;;;;5016874;28;20030;-80
2023/02/18 00:08:57;;;;;;;2.08;1.33;;;16.00;57.60;;;;;;5016695;28;20033;-80
2023/02/18 00:11:23;;;;;;;3.08;1.42;;;16.00;57.50;;;;;;4998954;28;20118;-80
2023/02/18 00:13:57;;;;;;;2.97;1.50;;;15.90;57.40;;;;;;5016512;28;20101;-80
2023/02/18 00:16:25;;;;;;;4.18;1.70;;;16.00;57.50;;;;;;5016400;28;20104;-80
2023/02/18 00:18:55;;;;;;;1.63;1.15;;;16.00;57.40;;;;;;5016865;28;20029;-80
2023/02/18 00:21:21;;;;;;;2.10;1.45;;;16.00;57.40;;;;;;5016180;28;20046;-80
2023/02/18 00:23:47;;;;;;;2.97;1.30;;;16.00;57.50;;;;;;5012345;28;20480;-80
2023/02/18 00:26:15;;;;;;;1.98;1.38;;;16.00;57.50;;;;;;4996553;28;20084;-80
2023/02/18 00:28:41;;;;;;;4.03;1.50;;;16.00;57.50;;;;;;4979069;28;20478;-80
2023/02/18 00:31:12;;;;;;;1.98;1.38;;;16.00;57.50;;;;;;4978990;28;20114;-80
2023/02/18 00:33:39;;;;;;;2.47;1.45;;;16.00;57.40;;;;;;4997165;28;20387;-80
2023/02/18 00:36:07;;;;;;;2.47;1.13;;;16.00;57.50;;;;;;5015796;28;20030;-80
2023/02/18 00:38:33;;;;;;;3.15;1.52;;;16.10;57.40;;;;;;5016056;28;20030;-79
2023/02/18 00:40:59;;;;;;;2.58;1.55;;;16.00;57.40;;;;;;5015930;28;20419;-80
2023/02/18 00:43:25;;;;;;;5.03;1.77;;;16.00;57.40;;;;;;4998517;28;20030;-80
2023/02/18 00:45:51;;;;;;;4.03;1.55;;;16.00;57.50;;;;;;5015668;28;20033;-80
2023/02/18 00:48:17;;;;;;;1.58;1.23;;;16.10;57.50;;;;;;5011136;28;20022;-80
2023/02/18 00:50:43;;;;;;;4.45;1.77;;;16.00;57.50;;;;;;5015868;28;20025;-80
2023/02/18 00:53:09;;;;;;;5.15;1.58;;;16.00;57.40;;;;;;4998072;28;20080;-80
2023/02/18 00:55:42;;;;;;;5.53;1.60;;;16.10;57.50;;;;;;5001831;28;20066;-79
2023/02/18 00:58:08;;;;;;;3.33;1.80;;;16.10;57.40;;;;;;4996634;28;20353;-80
2023/02/18 01:00:34;;;;;;;3.95;1.60;;;16.10;57.50;;;;;;4978639;28;20022;-80
2023/02/18 01:03:00;;;;;;;3.08;1.48;;;16.10;57.40;;;;;;4996118;28;20019;-80
2023/02/18 01:05:27;;;;;;;2.53;1.60;;;16.10;57.50;;;;;;4996744;28;20361;-80
2023/02/18 01:07:53;;;;;;;5.00;2.17;;;16.10;57.40;;;;;;4985451;28;20117;-80
2023/02/18 01:10:19;;;;;;;3.72;1.67;;;16.10;57.30;;;;;;5002688;28;20061;-80
2023/02/18 01:12:45;;;;;;;1.95;1.40;;;16.20;57.30;;;;;;4984605;28;20030;-80
2023/02/18 01:15:14;;;;;;;3.13;1.58;;;16.20;57.30;;;;;;4996876;28;20057;-80
2023/02/18 01:17:40;;;;;;;2.65;1.58;;;16.20;57.20;;;;;;5004955;28;20514;-80
2023/02/18 01:20:06;;;;;;;2.35;1.50;;;16.20;57.20;;;;;;5015708;28;20050;-80
2023/02/18 01:22:32;;;;;;;3.25;1.63;;;16.20;57.30;;;;;;4997414;28;20489;-80
2023/02/18 01:24:58;;;;;;;3.40;1.77;;;16.20;57.20;;;;;;5015172;28;20113;-80
2023/02/18 01:27:24;;;;;;;3.30;1.55;;;16.20;57.20;;;;;;5015285;28;20026;-80
2023/02/18 01:29:49;;;;;;;3.42;1.55;;;16.30;57.20;;;;;;5015207;28;20022;-80
2023/02/18 01:32:15;;;;;;;5.70;1.88;;;16.20;57.00;;;;;;5015134;28;20018;-80
2023/02/18 01:34:41;;;;;;;2.03;1.50;;;16.20;56.90;;;;;;4997625;28;20061;-80
2023/02/18 01:37:06;;;;;;;2.78;1.48;;;16.20;57.00;;;;;;4997482;28;20080;-79
2023/02/18 01:39:32;;;;;;;3.53;1.83;;;16.20;57.10;;;;;;5014915;28;20034;-80
2023/02/18 01:41:58;;;;;;;4.25;1.80;;;16.20;57.00;;;;;;5014921;28;20033;-80
2023/02/18 01:44:26;;;;;;;2.28;1.42;;;16.20;57.10;;;;;;5014793;28;20029;-80
2023/02/18 01:46:53;;;;;;;3.13;1.60;;;16.20;57.00;;;;;;5014979;28;20080;-80
2023/02/18 01:49:26;;;;;;;3.13;1.50;;;16.20;57.00;;;;;;4996964;28;20038;-79
2023/02/18 01:52:01;;;;;;;2.57;1.47;;;16.20;57.10;;;;;;5014533;28;20050;-80
2023/02/18 01:54:31;;;;;;;3.33;1.60;;;16.20;57.00;;;;;;5014574;28;20467;-79
2023/02/18 01:57:01;;;;;;;2.83;1.30;;;16.20;57.00;;;;;;5014354;28;20029;-79
2023/02/18 01:59:37;;;;;;;2.67;1.27;;;16.20;57.10;;;;;;5014489;28;20033;-80
2023/02/18 02:02:06;;;;;;;3.53;1.55;;;16.20;57.00;;;;;;4996811;28;20038;-80
2023/02/18 02:04:31;;;;;;;2.38;1.30;;;16.20;57.00;;;;;;4996717;28;20495;-80
2023/02/18 02:06:57;;;;;;;2.40;1.38;;;16.10;57.00;;;;;;5014030;28;20112;-79
2023/02/18 02:09:26;;;;;;;2.58;1.00;;;16.20;57.10;;;;;;5014248;28;20101;-79
2023/02/18 02:12:13;;;;;;;1.65;1.20;;;16.20;57.10;;;;;;4996626;28;20034;-80
2023/02/18 02:15:11;;;;;;;3.85;1.27;;;16.20;57.00;;;;;;5012935;28;20057;-86
2023/02/18 02:18:23;;;;;;;3.70;1.10;;;16.20;57.10;;;;;;4996169;28;20030;-85
2023/02/18 02:21:10;;;;;;;4.22;1.20;;;16.20;57.00;;;;;;5015389;28;20509;-86
2023/02/18 02:23:57;;;;;;;4.32;1.20;;;16.20;56.90;;;;;;5015265;28;20017;-85
2023/02/18 02:26:44;;;;;;;3.42;1.13;;;16.20;56.90;;;;;;5015153;28;20045;-86
2023/02/18 02:29:43;;;;;;;2.42;1.27;;;16.20;56.90;;;;;;5015177;28;20018;-86
2023/02/18 02:32:24;;;;;;;2.40;1.02;;;16.20;56.90;;;;;;5014801;28;20041;-84
2023/02/18 02:35:01;;;;;;;1.67;0.90;;;16.20;56.70;;;;;;5015149;28;20379;-85
2023/02/18 02:37:33;;;;;;;1.80;1.20;;;16.20;56.80;;;;;;4997407;28;20029;-86
2023/02/18 02:40:24;;;;;;;3.03;1.23;;;16.20;56.90;;;;;;5015242;28;20070;-85
2023/02/18 02:43:18;;;;;;;1.73;0.98;;;16.20;56.90;;;;;;4997436;28;20488;-85
2023/02/18 02:45:54;;;;;;;3.80;0.90;;;16.20;56.70;;;;;;4997121;28;20048;-86
2023/02/18 02:48:32;;;;;;;4.05;1.23;;;16.30;56.70;;;;;;4997199;28;20483;-86
2023/02/18 02:51:11;;;;;;;1.80;1.02;;;16.20;56.40;;;;;;5014540;28;20026;-87
2023/02/18 02:53:40;;;;;;;1.63;1.00;;;16.20;56.50;;;;;;4996807;28;20549;-84
2023/02/18 02:56:08;;;;;;;2.35;1.13;;;16.20;56.60;;;;;;5014129;28;20030;-84
2023/02/18 02:58:34;;;;;;;2.28;1.13;;;16.20;56.50;;;;;;5014339;28;20113;-83
2023/02/18 03:01:39;;;;;;;0.98;0.77;;;16.20;56.50;;;;;;4997151;28;20116;-84
2023/02/18 03:04:10;;;;;;;3.97;0.75;;;16.20;56.60;;;;;;4953675;28;20514;-84
2023/02/18 03:07:06;;;;;;;1.27;0.90;;;16.30;56.70;;;;;;4996326;28;20037;-83
2023/02/18 03:09:48;;;;;;;4.40;1.10;;;16.20;56.60;;;;;;5013569;28;20022;-83
2023/02/18 03:12:39;;;;;;;3.13;1.20;;;16.30;56.60;;;;;;5013754;28;20467;-83
2023/02/18 03:15:14;;;;;;;2.85;1.10;;;16.20;56.60;;;;;;5013730;28;20465;-86
2023/02/18 03:18:04;;;;;;;2.20;1.13;;;16.20;56.70;;;;;;4996102;28;20428;-82
2023/02/18 03:20:49;;;;;;;1.13;0.80;;;16.20;56.80;;;;;;4982320;28;20202;-84
2023/02/18 03:23:20;;;;;;;2.13;0.95;;;16.20;56.90;;;;;;4974523;28;20034;-84
2023/02/18 03:25:48;;;;;;;0.90;0.80;;;16.20;56.90;;;;;;4958752;28;20118;-85
2023/02/18 03:28:18;;;;;;;1.42;0.90;;;16.20;56.90;;;;;;4954344;29;20028;-84
2023/02/18 03:30:46;;;;;;;3.92;1.15;;;16.20;57.00;;;;;;4957421;29;20023;-83
2023/02/18 03:33:19;;;;;;;2.05;0.88;;;16.20;57.20;;;;;;4968325;28;20083;-84
2023/02/18 03:35:47;;;;;;;2.72;1.00;;;16.10;57.20;;;;;;4972761;29;20023;-84
2023/02/18 03:38:19;;;;;;;2.45;1.00;;;16.10;57.30;;;;;;4979399;28;20019;-83
2023/02/18 03:40:44;;;;;;;2.28;0.80;;;16.10;57.30;;;;;;4967701;28;20120;-85
2023/02/18 03:43:10;;;;;;;1.75;1.00;;;16.10;57.30;;;;;;4954655;29;20028;-85
2023/02/18 03:45:36;;;;;;;2.10;1.00;;;16.20;57.40;;;;;;4954766;29;20019;-85
2023/02/18 03:48:02;;;;;;;1.67;0.90;;;16.20;57.40;;;;;;4954089;29;20429;-86
2023/02/18 03:50:28;;;;;;;0.85;0.65;;;16.10;57.40;;;;;;4955522;28;20023;-83
2023/02/18 03:52:53;;;;;;;3.30;1.15;;;16.10;57.60;;;;;;4961969;28;20085;-86
2023/02/18 03:55:19;;;;;;;2.97;0.90;;;16.10;57.70;;;;;;4974492;28;20030;-84
2023/02/18 03:57:45;;;;;;;4.55;0.73;;;16.10;57.60;;;;;;4974467;28;20031;-84
2023/02/18 04:00:11;;;;;;;1.73;0.85;;;16.10;57.60;;;;;;4973108;28;20489;-84
2023/02/18 04:02:37;;;;;;;2.20;0.70;;;16.10;57.60;;;;;;4974121;28;20548;-84
2023/02/18 04:05:03;;;;;;;4.07;0.98;;;16.10;57.70;;;;;;4989880;28;20038;-84
2023/02/18 04:07:29;;;;;;;1.13;0.70;;;16.10;57.60;;;;;;4992774;28;20030;-84
2023/02/18 04:09:55;;;;;;;4.85;0.82;;;16.10;57.80;;;;;;4986682;28;20099;-84
2023/02/18 04:12:20;;;;;;;1.77;0.90;;;16.10;57.70;;;;;;4981003;28;20472;-82
2023/02/18 04:14:46;;;;;;;2.72;0.80;;;16.10;57.70;;;;;;4979078;28;20023;-82
2023/02/18 04:17:12;;;;;;;2.40;0.80;;;16.10;57.80;;;;;;4989157;28;20039;-84
2023/02/18 04:19:38;;;;;;;1.15;0.70;;;16.10;57.80;;;;;;4974539;28;20035;-85
2023/02/18 04:22:04;;;;;;;2.90;0.57;;;16.00;57.70;;;;;;5002626;28;20129;-83
2023/02/18 04:24:29;;;;;;;2.03;0.85;;;16.00;57.80;;;;;;5006568;28;20027;-85
2023/02/18 04:26:55;;;;;;;2.90;0.65;;;16.00;57.70;;;;;;4984853;28;20021;-85
2023/02/18 04:29:21;;;;;;;3.90;0.80;;;16.00;57.70;;;;;;5009431;28;20022;-85
2023/02/18 04:31:47;;;;;;;2.63;0.57;;;16.00;57.80;;;;;;5008103;28;20041;-85
2023/02/18 04:34:13;;;;;;;2.15;0.70;;;16.00;57.70;;;;;;5003230;28;20026;-84
2023/02/18 04:36:38;;;;;;;1.20;0.80;;;16.10;57.70;;;;;;4987850;28;20435;-85
2023/02/18 04:39:04;;;;;;;2.70;0.75;;;16.10;57.70;;;;;;4987774;28;20130;-83
2023/02/18 04:41:30;;;;;;;1.80;0.70;;;16.10;57.90;;;;;;4997569;28;20018;-84
2023/02/18 04:43:58;;;;;;;0.90;0.75;;;16.10;58.20;;;;;;5008640;28;20030;-86
2023/02/18 04:46:24;;;;;;;3.03;1.08;;;16.10;58.50;;;;;;4985738;28;20031;-85
2023/02/18 04:48:50;;;;;;;1.98;0.80;;;16.00;58.90;;;;;;4998475;28;20045;-83
2023/02/18 04:51:15;;;;;;;1.58;0.90;;;16.10;59.10;;;;;;5008744;28;20029;-84
2023/02/18 04:53:41;;;;;;;1.45;0.77;;;16.10;59.20;;;;;;4995168;28;20022;-86
2023/02/18 04:56:07;;;;;;;2.28;0.90;;;16.10;59.50;;;;;;5009423;28;20506;-85
2023/02/18 04:58:33;;;;;;;1.85;0.93;;;15.90;59.90;;;;;;5012950;28;20068;-84
2023/02/18 05:01:03;;;;;;;1.55;0.90;;;16.00;60.00;;;;;;4999060;28;20061;-83
2023/02/18 05:03:30;;;;;;;1.85;0.80;;;15.90;60.30;;;;;;5008192;28;20468;-84
2023/02/18 05:05:55;;;;;;;1.98;1.10;;;15.90;60.50;;;;;;5006464;28;20063;-84
2023/02/18 05:08:22;;;;;;;1.45;1.15;;;15.90;60.70;;;;;;5000874;28;20101;-86
2023/02/18 05:10:47;;;;;;;2.85;1.30;;;15.80;60.90;;;;;;5011053;28;20022;-86
2023/02/18 05:13:13;;;;;;;6.35;1.00;;;15.80;61.10;;;;;;5000636;28;20380;-83
2023/02/18 05:15:39;;;;;;;4.78;1.25;;;15.70;61.50;;;;;;5006309;28;20035;-85
2023/02/18 05:18:06;;;;;;;1.85;0.85;;;15.60;61.90;;;;;;5007617;28;20022;-85
2023/02/18 05:20:32;;;;;;;1.70;1.00;;;15.60;62.00;;;;;;5009902;28;20372;-84
2023/02/18 05:22:58;;;;;;;2.38;1.10;;;15.60;62.00;;;;;;5018890;28;20018;-83
2023/02/18 05:25:24;;;;;;;1.75;1.08;;;15.50;62.30;;;;;;5028317;28;20017;-85
2023/02/18 05:27:50;;;;;;;3.05;1.17;;;15.50;62.30;;;;;;5008507;28;20036;-82
2023/02/18 05:30:16;;;;;;;1.58;1.23;;;15.50;62.50;;;;;;5020713;28;20022;-84
2023/02/18 05:32:42;;;;;;;2.15;1.13;;;15.50;62.40;;;;;;5031204;28;20022;-83
2023/02/18 05:35:08;;;;;;;1.80;1.20;;;15.50;62.40;;;;;;4984477;28;20018;-84
2023/02/18 05:37:34;;;;;;;2.53;1.08;;;15.50;62.50;;;;;;5021648;28;20022;-85
2023/02/18 05:40:00;;;;;;;4.38;1.65;;;15.40;62.70;;;;;;5014691;28;20061;-86
2023/02/18 05:42:26;;;;;;;1.90;1.13;;;15.40;62.60;;;;;;4997356;28;20037;-85
2023/02/18 05:44:51;;;;;;;2.63;1.30;;;15.50;62.60;;;;;;5014802;28;20025;-85
2023/02/18 05:47:17;;;;;;;7.07;1.23;;;15.40;62.60;;;;;;4997276;28;20112;-84
2023/02/18 05:49:43;;;;;;;1.65;1.17;;;15.50;62.60;;;;;;4997466;28;20033;-85
2023/02/18 05:52:10;;;;;;;3.30;1.40;;;15.50;62.40;;;;;;5014371;28;20018;-86
2023/02/18 05:54:37;;;;;;;3.03;1.42;;;15.50;62.40;;;;;;4988588;28;20050;-85
2023/02/18 05:57:03;;;;;;;3.85;1.30;;;15.50;62.70;;;;;;5010725;28;20112;-86
2023/02/18 05:59:29;;;;;;;3.90;1.15;;;15.50;62.60;;;;;;4997540;28;20431;-83
2023/02/18 06:01:55;;;;;;;3.70;1.20;;;15.50;62.60;;;;;;4997107;28;20037;-86
2023/02/18 06:04:21;;;;;;;3.28;1.20;;;15.50;62.60;;;;;;5014549;28;20080;-83
2023/02/18 06:06:47;;;;;;;3.47;1.48;;;15.40;62.50;;;;;;4996873;28;20403;-83
2023/02/18 06:09:13;;;;;;;2.03;0.85;;;15.50;62.50;;;;;;4996747;28;20041;-84
2023/02/18 06:11:39;;;;;;;7.97;1.35;;;15.50;62.40;;;;;;5014665;28;20025;-84
2023/02/18 06:14:04;;;;;;;1.40;0.90;;;15.50;62.40;;;;;;4997734;28;20113;-84
2023/02/18 06:16:31;;;;;;;6.18;1.20;;;15.50;62.40;;;;;;5013431;28;20076;-85
2023/02/18 06:18:57;;;;;;;4.28;0.90;;;15.50;62.60;;;;;;5001794;28;20029;-83
2023/02/18 06:21:23;;;;;;;3.63;1.30;;;15.40;62.70;;;;;;4996805;28;20054;-85
2023/02/18 06:23:49;;;;;;;3.42;1.02;;;15.40;62.90;;;;;;4996783;28;20026;-83
2023/02/18 06:26:15;;;;;;;7.10;1.73;;;15.40;63.20;;;;;;4996759;28;20390;-85
2023/02/18 06:28:40;;;;;;;2.45;1.42;;;15.40;63.40;;;;;;4996868;28;20030;-85
2023/02/18 06:31:06;;;;;;;2.95;1.50;;;15.40;63.70;;;;;;4996452;28;20022;-86
2023/02/18 06:33:32;;;;;;;1.85;1.27;;;15.40;63.80;;;;;;4996517;28;20038;-83
2023/02/18 06:36:06;;;;;;;2.97;1.10;;;15.30;63.80;;;;;;4996708;28;20026;-84
2023/02/18 06:38:33;;;;;;;2.30;1.23;;;15.40;64.00;;;;;;5014297;28;20033;-85
2023/02/18 06:41:00;;;;;;;2.78;1.42;;;15.30;64.10;;;;;;5014470;28;20101;-83
2023/02/18 06:43:26;;;;;;;2.85;1.45;;;15.30;64.30;;;;;;4997021;28;20033;-85
2023/02/18 06:45:52;;;;;;;2.55;1.38;;;15.30;64.40;;;;;;5013136;28;20026;-84
2023/02/18 06:48:18;;;;;;;3.42;1.05;;;15.30;64.60;;;;;;4996744;28;20026;-86
2023/02/18 06:50:44;;;;;;;2.60;1.05;;;15.30;64.50;;;;;;4996300;28;20026;-86
2023/02/18 06:53:10;;;;;;;1.10;1.00;;;15.30;64.50;;;;;;4996048;28;20399;-83
2023/02/18 06:55:36;;;;;;;3.20;1.10;;;15.30;64.80;;;;;;4996414;28;20056;-86
2023/02/18 06:58:02;;;;;;;3.55;1.17;;;15.30;64.80;;;;;;5013995;28;20054;-85
2023/02/18 07:00:28;;;;;;;1.80;1.10;;;15.30;64.90;;;;;;4996093;28;20125;-86
2023/02/18 07:02:54;;;;;;;5.70;1.58;;;15.20;65.10;;;;;;5013814;28;20098;-85
2023/02/18 07:05:19;;;;;;;5.30;1.83;;;15.20;65.00;;;;;;4996203;28;20018;-84
2023/02/18 07:07:45;;;;;;;6.15;1.63;;;15.20;65.00;;;;;;4996169;28;20133;-86
2023/02/18 07:10:11;;;;;;;4.97;1.40;;;15.30;65.00;;;;;;5013638;28;20029;-84
2023/02/18 07:12:37;;;;;;;1.52;1.10;;;15.20;65.00;;;;;;4996336;28;20034;-86
2023/02/18 07:15:04;;;;;;;3.20;1.23;;;15.20;65.10;;;;;;4996303;28;20021;-84
2023/02/18 07:17:29;;;;;;;2.67;1.20;;;15.20;65.20;;;;;;5013996;28;20022;-84
2023/02/18 07:19:55;;;;;;;2.20;1.10;;;15.20;65.30;;;;;;5013567;28;20056;-84
2023/02/18 07:22:21;;;;;;;3.38;1.17;;;15.20;65.20;;;;;;5013614;28;20041;-85
2023/02/18 07:24:54;;;;;;;2.15;1.23;;;15.30;65.30;;;;;;4996076;28;20037;-84
2023/02/18 07:27:20;;;;;;;2.58;0.98;;;15.30;65.40;;;;;;4995868;28;20080;-85
2023/02/18 07:29:47;;;;;;;1.92;1.20;;;15.30;65.30;;;;;;4996009;28;20481;-83
2023/02/18 07:32:14;;;;;;;1.67;1.00;;;15.30;65.60;;;;;;5012497;28;20068;-84
2023/02/18 07:34:41;;;;;;;5.40;1.35;;;15.30;65.70;;;;;;4996055;28;20018;-84
2023/02/18 07:37:08;;;;;;;0.98;0.90;;;15.30;65.50;;;;;;5013378;28;20037;-85
2023/02/18 07:39:35;;;;;;;1.88;0.90;;;15.30;65.70;;;;;;5013716;28;20030;-85
2023/02/18 07:42:02;;;;;;;1.67;0.90;;;15.30;65.70;;;;;;4995813;28;20112;-85
2023/02/18 07:44:28;;;;;;;2.08;1.00;;;15.40;65.70;;;;;;5013515;28;20109;-85
2023/02/18 07:46:53;;;;;;;2.90;0.82;;;15.40;65.40;;;;;;4995625;28;20121;-85
2023/02/18 07:49:19;;;;;;;2.30;1.05;;;15.40;65.40;;;;;;5000826;28;20030;-84
2023/02/18 07:51:49;;;;;;;2.83;1.05;;;15.50;65.40;;;;;;5001893;28;20026;-82
2023/02/18 07:54:15;;;;;;;1.73;1.15;;;15.50;65.20;;;;;;5002195;28;20075;-85
2023/02/18 07:56:44;;;;;;;2.85;1.17;;;15.50;64.80;;;;;;5019584;28;20115;-85
2023/02/18 07:59:11;;;;;;;1.42;0.93;;;15.50;64.50;;;;;;4999829;28;20026;-84
2023/02/18 08:01:36;;;;;;;2.30;1.23;;;15.60;64.20;;;;;;4999774;28;20022;-85
2023/02/18 08:04:02;;;;;;;2.75;1.10;;;15.60;64.80;;;;;;5017345;28;20021;-85
2023/02/18 08:06:40;;;;;;;2.65;1.10;;;15.70;63.70;;;;;;5000706;28;20026;-86
2023/02/18 08:09:06;;;;;;;3.53;1.30;;;15.70;63.70;;;;;;5017455;28;20014;-86
2023/02/18 08:11:33;;;;;;;2.00;1.10;;;15.70;63.90;;;;;;4999597;28;20057;-83
2023/02/18 08:13:59;;;;;;;1.40;1.20;;;15.80;63.90;;;;;;5016602;28;20022;-86
2023/02/18 08:16:24;;;;;;;2.03;1.10;;;15.80;63.80;;;;;;5017556;28;20037;-84
2023/02/18 08:18:51;;;;;;;1.90;1.02;;;15.70;63.80;;;;;;5002864;28;20067;-85
2023/02/18 08:21:20;;;;;;;1.77;1.20;;;15.70;63.70;;;;;;5006987;28;20057;-85
2023/02/18 08:23:47;;;;;;;1.45;1.13;;;15.60;63.80;;;;;;5018104;28;20105;-84
2023/02/18 08:26:13;;;;;;;1.63;1.13;;;15.70;64.00;;;;;;4979417;28;20026;-83
2023/02/18 08:28:39;;;;;;;4.22;1.38;;;15.70;64.20;;;;;;5019431;28;20029;-86
2023/02/18 08:31:05;;;;;;;1.55;1.20;;;15.70;64.30;;;;;;5029956;28;20091;-85
2023/02/18 08:33:32;;;;;;;2.78;1.50;;;15.70;64.30;;;;;;5026947;28;20382;-85
2023/02/18 08:35:57;;;;;;;1.92;1.10;;;15.80;64.40;;;;;;5016210;28;20018;-86
2023/02/18 08:38:24;;;;;;;1.92;1.30;;;15.80;65.20;;;;;;5015133;28;20380;-84
2023/02/18 08:40:59;;;;;;;2.28;1.35;;;15.80;64.20;;;;;;5031649;28;20096;-84
2023/02/18 08:43:25;;;;;;;3.70;1.40;;;15.80;64.20;;;;;;5008352;28;20028;-84
2023/02/18 08:45:51;;;;;;;1.95;1.38;;;15.90;64.10;;;;;;5005508;28;20085;-84
2023/02/18 08:48:17;;;;;;;1.20;1.00;;;16.00;63.90;;;;;;5011421;28;20037;-84
2023/02/18 08:50:42;;;;;;;1.58;1.33;;;16.00;63.90;;;;;;5032362;28;20045;-85
2023/02/18 08:53:08;;;;;;;1.80;1.20;;;16.00;63.80;;;;;;5005688;28;20017;-86
2023/02/18 08:55:36;;;;;;;2.05;1.50;;;16.00;63.70;;;;;;5025279;28;20030;-85
2023/02/18 08:58:04;;;;;;;2.90;1.35;;;16.00;63.70;;;;;;4998580;28;20060;-83
2023/02/18 09:00:29;;;;;;;1.60;1.35;;;16.10;63.60;;;;;;5014543;28;20443;-84
2023/02/18 09:02:55;;;;;;;2.42;1.20;;;16.10;63.40;;;;;;5021562;28;20060;-83
2023/02/18 09:05:21;;;;;;;3.58;1.20;;;16.20;63.60;;;;;;5009026;28;20025;-83
2023/02/18 09:07:47;;;;;;;2.50;1.52;;;16.30;63.40;;;;;;5027572;28;20021;-84
2023/02/18 09:10:13;;;;;;;2.08;1.17;;;16.40;63.30;;;;;;5041142;28;20021;-82
2023/02/18 09:12:38;;;;;;;4.95;1.60;;;16.50;63.40;;;;;;5004982;28;20026;-82
2023/02/18 09:15:04;;;;;;;2.50;1.45;;;16.60;62.80;;;;;;5015778;28;20021;-82
2023/02/18 09:17:30;;;;;;;2.28;1.30;;;16.70;62.70;;;;;;5035441;28;20021;-84
2023/02/18 09:19:56;;;;;;;3.38;1.42;;;16.80;62.40;;;;;;5029880;28;20053;-84
2023/02/18 09:22:23;;;;;;;2.33;1.70;;;17.00;62.30;;;;;;5001385;28;20026;-85
2023/02/18 09:24:49;;;;;;;2.53;1.42;;;17.10;61.50;;;;;;5013077;28;20053;-86
2023/02/18 09:27:15;;;;;;;1.55;1.20;;;17.30;61.30;;;;;;5006139;28;20053;-83
2023/02/18 09:29:41;;;;;;;2.53;1.55;;;17.40;60.70;;;;;;5005813;28;20022;-86
2023/02/18 09:32:08;;;;;;;1.80;1.40;;;17.50;59.70;;;;;;5018775;28;20033;-83
2023/02/18 09:34:35;;;;;;;1.88;1.23;;;17.70;59.80;;;;;;5031565;28;20032;-83
2023/02/18 09:37:01;;;;;;;1.20;1.00;;;17.80;59.30;;;;;;5021353;28;20049;-84
2023/02/18 09:39:27;;;;;;;2.65;1.10;;;17.90;58.80;;;;;;5008033;28;20117;-83
2023/02/18 09:41:57;;;;;;;2.35;1.50;;;17.90;58.10;;;;;;5010633;28;20121;-85
2023/02/18 09:44:37;;;;;;;3.40;1.20;;;18.00;58.00;;;;;;5001007;28;20452;-83
2023/02/18 09:47:18;;;;;;;1.20;1.00;;;18.00;57.30;;;;;;5010803;28;20061;-86
2023/02/18 09:49:48;;;;;;;2.05;1.20;;;18.00;57.60;;;;;;5026768;28;20112;-85
2023/02/18 09:52:22;;;;;;;1.75;1.10;;;18.00;57.60;;;;;;5018469;28;20545;-84
2023/02/18 09:54:49;;;;;;;1.58;0.95;;;18.10;57.00;;;;;;4986750;28;20117;-85
2023/02/18 09:57:29;;;;;;;1.60;1.30;;;18.10;56.70;;;;;;5008829;28;20030;-86
2023/02/18 10:00:05;;;;;;;1.73;0.90;;;18.10;55.90;;;;;;5010549;28;20025;-86
2023/02/18 10:02:31;;;;;;;0.98;0.88;;;18.20;54.70;;;;;;5018158;28;20029;-84
2023/02/18 10:04:57;;;;;;;1.23;1.10;;;18.10;54.80;;;;;;5009131;28;20057;-84
2023/02/18 10:07:28;;;;;;;3.72;0.80;;;18.20;54.50;;;;;;5014476;28;20456;-85
2023/02/18 10:09:56;;;;;;;7.95;0.98;;;18.20;54.30;;;;;;5010839;28;20378;-84
2023/02/18 10:12:25;;;;;;;2.05;1.17;;;18.20;54.10;;;;;;5000502;28;20073;-85
2023/02/18 10:14:59;;;;;;;1.58;0.80;;;18.20;53.80;;;;;;5012004;28;20022;-84
2023/02/18 10:17:29;;;;;;;11.70;1.73;;;18.20;54.30;;;;;;5006298;28;20029;-82
2023/02/18 10:19:56;;;;;;;1.08;0.90;;;18.30;53.50;;;;;;5028131;28;20041;-84
2023/02/18 10:22:24;;;;;;;5.03;1.30;;;18.40;53.60;;;;;;5030028;28;20025;-85
2023/02/18 10:24:57;;;;;;;6.57;1.00;;;18.50;52.80;;;;;;5016551;28;20091;-83
2023/02/18 10:27:27;;;;;;;3.35;1.02;;;18.50;52.20;;;;;;5007548;28;20029;-84
2023/02/18 10:30:11;;;;;;;3.28;1.00;;;18.60;52.10;;;;;;5027624;28;20021;-84
2023/02/18 10:32:42;;;;;;;3.58;1.10;;;18.70;51.90;;;;;;5031087;28;20491;-85
2023/02/18 10:35:55;;;;;;;3.70;1.10;;;18.80;51.60;;;;;;5003821;28;20018;-85
2023/02/18 10:38:51;;;;;;;3.38;1.23;;;18.90;52.00;;;;;;4994561;28;20047;-83
2023/02/18 10:41:33;;;;;;;1.23;0.75;;;19.10;51.40;;;;;;5025394;28;20018;-84
2023/02/18 10:44:08;;;;;;;1.45;0.80;;;19.20;50.70;;;;;;5027982;28;20027;-85
2023/02/18 10:46:48;;;;;;;1.17;0.82;;;19.30;50.20;;;;;;5017206;28;20087;-85
2023/02/18 10:49:17;;;;;;;6.63;1.50;;;19.40;50.10;;;;;;5025550;28;20026;-83
2023/02/18 10:51:53;;;;;;;1.77;0.85;;;19.50;49.20;;;;;;5022074;28;20029;-84
2023/02/18 10:54:24;;;;;;;2.92;1.13;;;19.50;49.40;;;;;;5030243;28;20049;-83
2023/02/18 10:56:52;;;;;;;3.58;1.08;;;19.50;48.80;;;;;;4996372;28;20026;-82
2023/02/18 10:59:24;;;;;;;4.68;1.00;;;19.50;48.60;;;;;;5004727;28;20471;-83
2023/02/18 11:02:17;;;;;;;3.45;1.10;;;19.50;48.60;;;;;;5003384;28;20109;-85
2023/02/18 11:04:45;;;;;;;2.13;1.60;;;19.50;49.20;;;;;;4996225;28;20040;-86
2023/02/18 11:07:18;;;;;;;1.42;1.10;;;19.60;49.20;;;;;;5008808;28;20079;-83
2023/02/18 11:09:54;;;;;;;2.00;1.10;;;19.60;48.70;;;;;;5008491;28;20026;-85
2023/02/18 11:12:26;;;;;;;16.15;2.40;;;19.50;48.50;;;;;;5012351;28;20379;-86
2023/02/18 11:15:14;;;;;;;2.58;1.00;;;19.50;48.60;;;;;;5028433;28;20022;-85
2023/02/18 11:17:41;;;;;;;0.90;0.70;;;19.50;47.60;;;;;;5004909;28;20033;-84
2023/02/18 11:20:31;;;;;;;1.92;1.10;;;19.50;47.80;;;;;;5029041;28;20045;-84
2023/02/18 11:23:06;;;;;;;4.00;0.90;;;19.50;48.10;;;;;;5010314;28;20026;-85
2023/02/18 11:25:34;;;;;;;5.63;1.10;;;19.50;47.70;;;;;;5006878;28;20120;-84
2023/02/18 11:28:17;;;;;;;1.58;0.88;;;19.60;47.50;;;;;;5019082;28;20021;-85
2023/02/18 11:30:52;;;;;;;4.82;1.30;;;19.60;46.60;;;;;;5002188;28;20049;-83
2023/02/18 11:33:23;;;;;;;6.38;1.30;;;19.70;46.10;;;;;;5025813;28;20025;-85
2023/02/18 11:35:57;;;;;;;1.80;0.90;;;19.70;46.40;;;;;;5024582;28;20026;-84
2023/02/18 11:38:33;;;;;;;4.35;1.00;;;19.70;45.40;;;;;;5017584;28;20053;-85
2023/02/18 11:41:10;;;;;;;2.30;0.90;;;19.60;44.70;;;;;;5018322;28;20028;-83
2023/02/18 11:43:41;;;;;;;2.60;0.95;;;19.60;45.20;;;;;;5017871;28;20026;-83
2023/02/18 11:46:13;;;;;;;5.30;1.55;;;19.60;45.10;;;;;;5017135;28;20025;-84
2023/02/18 11:48:40;;;;;;;1.48;0.80;;;19.60;44.80;;;;;;5007993;28;20496;-84
2023/02/18 11:51:13;;;;;;;5.68;1.55;;;19.60;44.10;;;;;;4998248;28;20494;-85
2023/02/18 11:53:53;;;;;;;0.90;0.68;;;19.70;44.70;;;;;;5002218;28;20034;-82
2023/02/18 11:56:19;;;;;;;1.40;0.75;;;19.70;44.30;;;;;;5006422;28;20026;-84
2023/02/18 11:58:47;;;;;;;2.00;0.80;;;19.60;44.10;;;;;;5023891;28;20030;-84
2023/02/18 12:01:24;;;;;;;12.13;1.00;;;19.60;43.20;;;;;;5006178;28;20096;-83
2023/02/18 12:04:11;;;;;;;2.97;0.93;;;19.50;43.00;;;;;;5022475;28;20088;-83
2023/02/18 12:07:14;;;;;;;4.65;0.88;;;19.50;43.20;;;;;;5019446;28;20514;-84
2023/02/18 12:09:45;;;;;;;2.72;0.70;;;19.50;43.90;;;;;;5001195;28;20018;-84
2023/02/18 12:12:32;;;;;;;1.27;0.60;;;19.40;43.40;;;;;;5015439;28;20014;-84
2023/02/18 12:14:59;;;;;;;2.33;0.90;;;19.50;43.50;;;;;;5018220;28;20021;-85
2023/02/18 12:17:47;;;;;;;1.30;0.73;;;19.50;44.00;;;;;;4998652;28;20392;-86
2023/02/18 12:20:48;;;;;;;1.75;0.70;;;19.50;43.70;;;;;;4994697;28;20054;-83
2023/02/18 12:23:32;;;;;;;0.88;0.60;;;19.50;43.70;;;;;;4978638;28;20484;-84
2023/02/18 12:26:21;;;;;;;3.03;0.80;;;19.60;44.00;;;;;;4995482;28;20519;-85
2023/02/18 12:29:05;;;;;;;0.90;0.68;;;19.50;43.60;;;;;;4996211;28;20480;-82
2023/02/18 12:31:54;;;;;;;1.35;0.73;;;19.50;43.70;;;;;;4978328;28;20027;-83
2023/02/18 12:34:41;;;;;;;0.52;0.52;;;19.60;44.10;;;;;;4976701;28;20030;-85
2023/02/18 12:37:07;;;;;;;4.97;0.68;;;19.50;43.70;;;;;;4978211;28;20031;-86
2023/02/18 12:40:20;;;;;;;2.83;0.70;;;19.60;44.00;;;;;;4988987;28;20038;-84
2023/02/18 12:43:16;;;;;;;1.25;0.50;;;19.60;44.60;;;;;;4976891;28;20111;-85
2023/02/18 12:45:55;;;;;;;5.28;0.82;;;19.50;44.40;;;;;;4965933;28;20487;-85
2023/02/18 12:48:58;;;;;;;1.00;0.77;;;19.50;44.40;;;;;;4982642;28;20042;-83
2023/02/18 12:52:01;;;;;;;0.50;0.43;;;19.50;44.70;;;;;;4996404;28;20478;-83
2023/02/18 12:54:48;;;;;;;1.08;0.70;;;19.60;45.10;;;;;;4978146;28;20062;-84
2023/02/18 12:57:30;;;;;;;6.90;0.93;;;19.60;44.40;;;;;;4995507;28;20044;-87
2023/02/18 13:00:07;;;;;;;1.90;0.68;;;19.70;44.60;;;;;;4997030;28;20037;-85
2023/02/18 13:02:56;;;;;;;0.82;0.73;;;19.80;44.30;;;;;;4997423;28;20387;-85
2023/02/18 13:05:40;;;;;;;1.63;0.82;;;19.90;44.40;;;;;;4996151;28;20133;-84